Terminal Aerodrome Forecast
Issued by NWS Wilmington, OH

Current Version | Previous Version | Graphics & Text | Print | Product List | Glossary On
Versions: 1 2 3 4 5 6 7 8 9 10 11 12 13 14 15 16 17 18 19 20 21 22 23
000
FTUS41 KILN 252002 AAA
TAFCMH
TAF AMD
KCMH 252002Z 2520/2618 26017G29KT P6SM VCSH BKN030 OVC050
      TEMPO 2520/2523 SCT030 OVC040
     FM252300 27012G20KT P6SM BKN050
     FM261000 27008KT P6SM FEW060 SCT200
     FM261700 21007KT P6SM FEW200=

USA.gov is the U.S. government's official web portal to all federal, state and local government web resources and services.